createdAt,value
2022-08-14T00:02:27.844Z,3.38
2022-08-14T00:04:59.724Z,3.60
2022-08-14T00:07:28.130Z,3.60
2022-08-14T00:12:57.070Z,3.75
2022-08-14T00:15:43.643Z,3.40
2022-08-14T00:18:30.600Z,3.40
2022-08-14T00:21:03.246Z,3.67
2022-08-14T00:23:31.276Z,4.15
2022-08-14T00:26:06.683Z,3.80
2022-08-14T00:28:53.875Z,3.88
2022-08-14T00:31:35.142Z,4.03
2022-08-14T00:34:37.870Z,3.40
2022-08-14T00:36:59.395Z,4.00
2022-08-14T00:39:27.572Z,3.85
2022-08-14T00:41:55.717Z,3.78
2022-08-14T00:44:31.753Z,3.85
2022-08-14T00:47:10.853Z,4.03
2022-08-14T00:49:42.978Z,3.88
2022-08-14T00:52:13.938Z,4.07
2022-08-14T00:54:58.142Z,4.30
2022-08-14T00:57:30.979Z,3.72
2022-08-14T01:00:00.881Z,4.22
2022-08-14T01:02:31.703Z,4.40
2022-08-14T01:05:01.463Z,4.10
2022-08-14T01:07:38.658Z,4.60
2022-08-14T01:10:07.459Z,4.20
2022-08-14T01:12:40.580Z,5.13
2022-08-14T01:15:09.780Z,4.18
2022-08-14T01:18:01.977Z,4.25
2022-08-14T01:20:50.315Z,4.85
2022-08-14T01:23:19.038Z,4.38
2022-08-14T01:25:52.089Z,4.82
2022-08-14T01:28:46.730Z,4.70
2022-08-14T01:31:15.914Z,4.30
2022-08-14T01:34:00.091Z,5.07
2022-08-14T01:36:39.196Z,5.15
2022-08-14T01:39:15.490Z,5.18
2022-08-14T01:41:58.316Z,5.57
2022-08-14T01:44:32.800Z,4.80
2022-08-14T01:47:21.665Z,4.50
2022-08-14T01:49:59.662Z,4.90
2022-08-14T01:52:57.808Z,6.00
2022-08-14T01:55:30.590Z,4.78
2022-08-14T01:58:02.248Z,4.88
2022-08-14T02:06:32.948Z,4.63
2022-08-14T02:09:04.313Z,5.95
2022-08-14T02:11:47.313Z,5.13
2022-08-14T02:14:31.333Z,5.05
2022-08-14T02:17:00.860Z,5.53
2022-08-14T02:19:32.406Z,6.43
2022-08-14T02:22:03.383Z,6.28
2022-08-14T02:24:39.858Z,5.65
2022-08-14T02:28:25.872Z,5.80
2022-08-14T02:30:01.142Z,5.50
2022-08-14T02:32:37.111Z,6.05
2022-08-14T02:35:17.612Z,5.30
2022-08-14T02:37:49.108Z,5.00
2022-08-14T02:40:19.378Z,5.32
2022-08-14T02:42:54.688Z,5.70
2022-08-14T02:45:33.180Z,5.18
2022-08-14T02:48:10.508Z,5.25
2022-08-14T02:50:55.774Z,5.30
2022-08-14T02:53:23.895Z,5.00
2022-08-14T02:55:52.489Z,5.47
2022-08-14T02:58:30.585Z,6.18
2022-08-14T03:01:01.585Z,5.35
2022-08-14T03:03:31.619Z,5.40
2022-08-14T03:06:00.693Z,5.47
2022-08-14T03:08:32.384Z,6.40
2022-08-14T03:11:01.334Z,5.40
2022-08-14T03:13:29.593Z,6.40
2022-08-14T03:15:57.846Z,5.32
2022-08-14T03:18:32.119Z,4.85
2022-08-14T03:21:03.231Z,5.57
2022-08-14T03:23:38.686Z,5.32
2022-08-14T03:26:12.651Z,5.72
2022-08-14T03:28:52.602Z,5.72
2022-08-14T03:31:26.096Z,5.15
2022-08-14T03:33:59.823Z,6.65
2022-08-14T03:37:38.472Z,5.72
2022-08-14T03:39:23.958Z,5.70
2022-08-14T03:41:55.339Z,5.25
2022-08-14T03:45:19.644Z,5.22
2022-08-14T03:47:15.478Z,6.13
2022-08-14T03:49:50.096Z,5.60
2022-08-14T03:52:39.116Z,5.53
2022-08-14T03:55:09.661Z,6.03
2022-08-14T03:57:38.037Z,5.85
2022-08-14T04:00:42.757Z,5.25
2022-08-14T04:03:02.544Z,5.63
2022-08-14T04:08:28.932Z,5.57
2022-08-14T04:11:01.131Z,5.50
2022-08-14T04:13:34.039Z,5.72
2022-08-14T04:16:12.329Z,6.88
2022-08-14T04:18:43.777Z,5.68
2022-08-14T04:21:12.910Z,6.13
2022-08-14T04:23:44.022Z,5.90
2022-08-14T04:26:14.967Z,5.75
2022-08-14T04:29:08.113Z,5.70
2022-08-14T04:32:58.073Z,5.87
2022-08-14T04:34:31.229Z,6.68
2022-08-14T04:37:22.342Z,6.85
2022-08-14T04:40:13.776Z,6.75
2022-08-14T04:43:01.659Z,5.95
2022-08-14T04:45:36.431Z,6.50
2022-08-14T04:48:39.172Z,6.88
2022-08-14T04:51:04.415Z,6.40
2022-08-14T04:53:35.009Z,6.32
2022-08-14T04:56:06.131Z,7.63
2022-08-14T04:58:39.064Z,6.72
2022-08-14T05:01:12.559Z,6.78
2022-08-14T05:03:41.275Z,6.63
2022-08-14T05:06:37.225Z,6.35
2022-08-14T05:09:00.099Z,6.35
2022-08-14T05:11:30.546Z,6.28
2022-08-14T05:14:42.747Z,6.65
2022-08-14T05:16:47.375Z,6.30
2022-08-14T05:19:24.890Z,7.30
2022-08-14T05:22:15.708Z,6.88
2022-08-14T05:24:51.236Z,6.40
2022-08-14T05:27:22.678Z,7.60
2022-08-14T05:29:53.724Z,7.00
2022-08-14T05:32:28.023Z,7.10
2022-08-14T05:35:00.137Z,7.07
2022-08-14T05:37:30.103Z,7.35
2022-08-14T05:39:59.082Z,8.15
2022-08-14T05:42:31.773Z,7.07
2022-08-14T05:45:00.389Z,8.23
2022-08-14T05:47:28.734Z,7.07
2022-08-14T05:50:02.335Z,8.05
2022-08-14T05:52:38.400Z,7.90
2022-08-14T05:55:09.343Z,7.22
2022-08-14T05:57:55.030Z,8.50
2022-08-14T06:00:39.480Z,7.63
2022-08-14T06:03:14.849Z,9.20
2022-08-14T06:05:47.941Z,9.30
2022-08-14T06:08:35.587Z,7.57
2022-08-14T06:11:07.842Z,7.93
2022-08-14T06:13:40.963Z,7.85
2022-08-14T06:16:17.675Z,6.82
2022-08-14T06:18:52.366Z,7.72
2022-08-14T06:21:23.964Z,6.75
2022-08-14T06:23:51.875Z,7.65
2022-08-14T06:26:22.098Z,7.93
2022-08-14T06:28:52.404Z,7.15
2022-08-14T06:31:23.290Z,7.47
2022-08-14T06:35:10.818Z,7.10
2022-08-14T06:36:39.298Z,7.38
2022-08-14T06:39:10.339Z,6.70
2022-08-14T06:41:58.198Z,6.53
2022-08-14T06:47:02.097Z,7.00
2022-08-14T06:49:30.111Z,7.15
2022-08-14T06:51:58.265Z,7.28
2022-08-14T06:54:31.697Z,6.70
2022-08-14T06:56:59.758Z,6.57
2022-08-14T06:59:30.277Z,6.57
2022-08-14T07:02:36.896Z,6.13
2022-08-14T07:05:30.111Z,6.15
2022-08-14T07:07:58.284Z,5.50
2022-08-14T07:10:26.505Z,5.78
2022-08-14T07:13:03.583Z,5.75
2022-08-14T07:15:34.170Z,4.88
2022-08-14T07:18:12.352Z,5.22
2022-08-14T07:20:42.365Z,5.70
2022-08-14T07:23:21.074Z,5.80
2022-08-14T07:25:51.710Z,4.63
2022-08-14T07:28:24.597Z,4.82
2022-08-14T07:31:05.183Z,4.85
2022-08-14T07:33:50.493Z,5.03
2022-08-14T07:36:27.323Z,5.15
2022-08-14T07:39:12.344Z,4.53
2022-08-14T07:41:42.395Z,4.72
2022-08-14T07:44:32.088Z,4.32
2022-08-14T07:47:00.918Z,4.15
2022-08-14T07:49:28.850Z,4.40
2022-08-14T07:51:56.918Z,3.88
2022-08-14T07:54:29.596Z,3.83
2022-08-14T07:57:11.982Z,4.28
2022-08-14T07:59:44.713Z,4.47
2022-08-14T08:02:19.213Z,3.75
2022-08-14T08:04:53.189Z,4.65
2022-08-14T08:07:29.554Z,4.57
2022-08-14T08:10:07.823Z,3.90
2022-08-14T08:12:43.604Z,4.65
2022-08-14T08:15:13.414Z,4.82
2022-08-14T08:17:53.766Z,5.15
2022-08-14T08:20:42.109Z,4.97
2022-08-14T08:23:22.392Z,3.95
2022-08-14T08:26:30.777Z,3.85
2022-08-14T08:28:59.899Z,4.05
2022-08-14T08:31:33.039Z,3.92
2022-08-14T08:34:06.374Z,3.40
2022-08-14T08:36:41.886Z,3.30
2022-08-14T08:39:18.772Z,3.78
2022-08-14T08:41:53.470Z,3.30
2022-08-14T08:44:33.236Z,3.45
2022-08-14T08:47:06.717Z,2.78
2022-08-14T08:49:58.910Z,3.10
2022-08-14T08:52:32.311Z,3.10
2022-08-14T08:55:04.536Z,3.33
2022-08-14T08:57:37.745Z,3.00
2022-08-14T09:00:25.668Z,2.90
2022-08-14T09:03:17.576Z,2.85
2022-08-14T09:05:56.870Z,3.20
2022-08-14T09:08:31.706Z,2.90
2022-08-14T09:11:19.772Z,2.65
2022-08-14T09:13:54.253Z,2.70
2022-08-14T09:16:25.737Z,2.78
2022-08-14T09:18:54.859Z,2.90
2022-08-14T09:21:24.197Z,2.90
2022-08-14T09:24:28.245Z,3.03
2022-08-14T09:26:49.500Z,2.53
2022-08-14T09:29:23.240Z,2.83
2022-08-14T09:31:59.771Z,2.80
2022-08-14T09:34:58.045Z,2.30
2022-08-14T09:37:55.235Z,2.30
2022-08-14T09:40:42.244Z,2.67
2022-08-14T09:43:29.966Z,2.15
2022-08-14T09:46:02.522Z,2.33
2022-08-14T09:48:31.392Z,2.72
2022-08-14T09:54:12.704Z,2.40
2022-08-14T09:56:56.601Z,2.38
2022-08-14T09:59:26.683Z,2.58
2022-08-14T10:01:57.458Z,2.80
2022-08-14T10:04:33.485Z,2.90
2022-08-14T10:07:06.153Z,2.65
2022-08-14T10:12:43.379Z,2.85
2022-08-14T10:15:21.954Z,2.40
2022-08-14T10:18:09.593Z,2.70
2022-08-14T10:20:58.074Z,2.45
2022-08-14T10:23:33.970Z,2.45
2022-08-14T10:26:06.663Z,2.75
2022-08-14T10:29:14.124Z,1.90
2022-08-14T10:31:43.154Z,2.08
2022-08-14T10:34:19.858Z,2.00
2022-08-14T10:37:14.209Z,2.03
2022-08-14T10:40:01.749Z,2.10
2022-08-14T10:42:40.534Z,2.25
2022-08-14T10:45:30.779Z,2.33
2022-08-14T10:48:30.796Z,2.40
2022-08-14T10:51:02.983Z,1.85
2022-08-14T10:53:35.410Z,2.25
2022-08-14T10:56:09.074Z,1.88
2022-08-14T10:59:00.189Z,1.65
2022-08-14T11:01:41.081Z,2.10
2022-08-14T11:04:30.547Z,2.42
2022-08-14T11:06:59.405Z,2.03
2022-08-14T11:09:31.703Z,2.40
2022-08-14T11:12:33.142Z,1.88
2022-08-14T11:15:02.642Z,1.92
2022-08-14T11:17:37.578Z,2.03
2022-08-14T11:20:14.481Z,1.75
2022-08-14T11:22:52.742Z,1.70
2022-08-14T11:25:36.887Z,1.92
2022-08-14T11:28:46.988Z,1.98
2022-08-14T11:31:17.018Z,1.88
2022-08-14T11:33:54.024Z,1.80
2022-08-14T11:37:02.095Z,1.60
2022-08-14T11:39:34.458Z,1.70
2022-08-14T11:42:55.354Z,1.50
2022-08-14T11:45:04.207Z,2.90
2022-08-14T11:48:11.169Z,1.90
2022-08-14T11:50:37.135Z,1.50
2022-08-14T11:53:08.982Z,1.80
2022-08-14T11:55:39.863Z,1.70
2022-08-14T11:58:12.071Z,1.95
2022-08-14T12:00:54.844Z,2.00
2022-08-14T12:03:27.219Z,1.95
2022-08-14T12:06:27.957Z,1.90
2022-08-14T12:08:59.937Z,1.88
2022-08-14T12:11:44.034Z,1.42
2022-08-14T12:14:31.187Z,2.03
2022-08-14T12:19:58.720Z,1.77
2022-08-14T12:22:42.373Z,2.17
2022-08-14T12:25:19.518Z,2.17
2022-08-14T12:27:53.498Z,1.98
2022-08-14T12:30:39.483Z,1.88
2022-08-14T12:33:34.018Z,1.85
2022-08-14T12:36:05.909Z,1.70
2022-08-14T12:38:38.677Z,1.90
2022-08-14T12:41:16.306Z,1.50
2022-08-14T12:44:08.505Z,1.90
2022-08-14T12:46:43.361Z,1.75
2022-08-14T12:49:16.021Z,2.30
2022-08-14T12:51:55.677Z,2.28
2022-08-14T12:54:27.204Z,2.45
2022-08-14T12:57:20.213Z,2.25
2022-08-14T12:59:49.345Z,1.98
2022-08-14T13:02:25.286Z,2.17
2022-08-14T13:04:59.292Z,2.10
2022-08-14T13:07:32.714Z,2.33
2022-08-14T13:10:46.145Z,1.77
2022-08-14T13:13:12.558Z,1.52
2022-08-14T13:15:40.545Z,1.95
2022-08-14T13:18:12.659Z,1.92
2022-08-14T13:20:51.319Z,1.90
2022-08-14T13:23:31.615Z,1.58
2022-08-14T13:26:01.261Z,1.75
2022-08-14T13:28:34.026Z,2.40
2022-08-14T13:31:11.178Z,1.88
2022-08-14T13:33:40.402Z,1.88
2022-08-14T13:36:23.621Z,1.90
2022-08-14T13:38:54.227Z,1.50
2022-08-14T13:41:31.682Z,1.88
2022-08-14T13:44:04.580Z,2.08
2022-08-14T13:46:33.119Z,1.50
2022-08-14T13:49:00.802Z,1.88
2022-08-14T13:51:36.071Z,1.50
2022-08-14T13:54:10.879Z,1.80
2022-08-14T13:56:42.208Z,1.85
2022-08-14T13:59:10.489Z,2.05
2022-08-14T14:04:19.179Z,2.47
2022-08-14T14:06:50.830Z,2.42
2022-08-14T14:09:32.562Z,1.48
2022-08-14T14:12:38.551Z,1.75
2022-08-14T14:15:04.920Z,1.30
2022-08-14T14:17:35.411Z,1.52
2022-08-14T14:20:06.769Z,1.50
2022-08-14T14:23:00.648Z,1.60
2022-08-14T14:27:53.361Z,1.33
2022-08-14T14:30:51.988Z,2.30
2022-08-14T14:33:44.105Z,1.80
2022-08-14T14:36:01.755Z,1.50
2022-08-14T14:38:33.332Z,1.65
2022-08-14T14:41:05.572Z,1.60
2022-08-14T14:43:39.081Z,1.60
2022-08-14T14:46:09.389Z,1.73
2022-08-14T14:48:46.584Z,1.70
2022-08-14T14:51:23.088Z,1.70
2022-08-14T14:53:52.508Z,2.03
2022-08-14T14:56:50.949Z,2.00
2022-08-14T14:59:09.242Z,2.00
2022-08-14T15:01:39.460Z,2.85
2022-08-14T15:04:20.556Z,1.83
2022-08-14T15:06:50.194Z,1.90
2022-08-14T15:09:21.061Z,3.20
2022-08-14T15:11:51.651Z,2.47
2022-08-14T15:14:57.400Z,2.15
2022-08-14T15:17:09.058Z,2.10
2022-08-14T15:19:38.436Z,2.08
2022-08-14T15:22:10.553Z,1.67
2022-08-14T15:24:38.951Z,2.08
2022-08-14T15:27:09.400Z,1.60
2022-08-14T15:29:43.042Z,1.85
2022-08-14T15:32:11.606Z,1.92
2022-08-14T15:34:51.703Z,1.58
2022-08-14T15:37:22.965Z,2.33
2022-08-14T15:39:52.475Z,1.40
2022-08-14T15:42:23.220Z,2.63
2022-08-14T15:44:58.205Z,2.90
2022-08-14T15:50:05.849Z,2.10
2022-08-14T15:52:37.449Z,2.00
2022-08-14T15:55:09.040Z,2.80
2022-08-14T15:57:37.552Z,3.08
2022-08-14T16:00:40.645Z,2.17
2022-08-14T16:03:15.895Z,3.13
2022-08-14T16:05:46.606Z,2.90
2022-08-14T16:08:29.777Z,2.80
2022-08-14T16:11:07.186Z,2.67
2022-08-14T16:13:43.697Z,2.80
2022-08-14T16:16:50.022Z,2.70
2022-08-14T16:19:11.013Z,3.20
2022-08-14T16:22:02.297Z,3.05
2022-08-14T16:24:33.738Z,2.28
2022-08-14T16:27:05.141Z,3.13
2022-08-14T16:29:35.985Z,2.40
2022-08-14T16:32:33.008Z,2.25
2022-08-14T16:34:55.911Z,2.10
2022-08-14T16:37:33.956Z,2.90
2022-08-14T16:40:03.763Z,2.72
2022-08-14T16:43:03.310Z,2.90
2022-08-14T16:45:33.854Z,2.67
2022-08-14T16:48:57.024Z,2.45
2022-08-14T16:51:06.778Z,3.10
2022-08-14T16:53:36.930Z,2.47
2022-08-14T16:56:23.528Z,3.03
2022-08-14T16:59:20.519Z,2.47
2022-08-14T17:02:05.043Z,2.42
2022-08-14T17:04:41.031Z,1.88
2022-08-14T17:07:14.824Z,2.08
2022-08-14T17:09:48.694Z,1.42
2022-08-14T17:12:34.108Z,2.42
2022-08-14T17:15:10.558Z,2.25
2022-08-14T17:17:58.412Z,1.80
2022-08-14T17:20:51.512Z,1.98
2022-08-14T17:23:18.214Z,2.00
2022-08-14T17:25:49.406Z,2.17
2022-08-14T17:28:51.280Z,2.40
2022-08-14T17:31:58.106Z,2.88
2022-08-14T17:34:21.787Z,1.75
2022-08-14T17:36:56.566Z,1.90
2022-08-14T17:39:40.110Z,2.20
2022-08-14T17:42:13.304Z,2.20
2022-08-14T17:44:45.923Z,1.80
2022-08-14T17:47:20.294Z,1.80
2022-08-14T17:49:55.034Z,1.70
2022-08-14T17:52:41.400Z,1.70
2022-08-14T17:56:03.044Z,1.92
2022-08-14T18:01:35.830Z,1.85
2022-08-14T18:07:50.613Z,2.47
2022-08-14T18:10:31.925Z,2.10
2022-08-14T18:13:07.247Z,2.15
2022-08-14T18:18:51.667Z,2.22
2022-08-14T18:21:43.106Z,2.63
2022-08-14T18:24:28.102Z,1.70
2022-08-14T18:27:08.736Z,1.90
2022-08-14T18:29:54.496Z,1.95
2022-08-14T18:32:27.459Z,2.42
2022-08-14T18:35:10.912Z,2.13
2022-08-14T18:37:55.725Z,2.05
2022-08-14T18:40:34.979Z,2.72
2022-08-14T18:43:06.130Z,2.47
2022-08-14T18:45:41.310Z,1.77
2022-08-14T18:48:28.689Z,3.08
2022-08-14T18:51:44.814Z,2.45
2022-08-14T18:54:32.964Z,2.53
2022-08-14T18:59:39.246Z,3.10
2022-08-14T19:02:30.558Z,2.10
2022-08-14T19:05:04.274Z,2.60
2022-08-14T19:07:33.930Z,2.72
2022-08-14T19:10:16.576Z,2.40
2022-08-14T19:12:56.748Z,2.25
2022-08-14T19:15:33.069Z,2.65
2022-08-14T19:18:25.957Z,2.20
2022-08-14T19:20:59.181Z,2.70
2022-08-14T19:23:44.011Z,2.10
2022-08-14T19:26:35.743Z,2.60
2022-08-14T19:29:25.484Z,3.17
2022-08-14T19:31:58.885Z,3.05
2022-08-14T19:34:52.263Z,3.22
2022-08-14T19:37:52.115Z,2.88
2022-08-14T19:40:36.169Z,2.80
2022-08-14T19:43:06.684Z,2.88
2022-08-14T19:45:41.780Z,2.60
2022-08-14T19:48:15.753Z,2.63
2022-08-14T19:50:47.133Z,2.75
2022-08-14T19:53:17.426Z,2.90
2022-08-14T19:56:01.438Z,3.00
2022-08-14T19:58:55.049Z,2.60
2022-08-14T20:01:37.378Z,3.10
2022-08-14T20:04:45.193Z,3.78
2022-08-14T20:06:57.568Z,2.92
2022-08-14T20:11:08.124Z,3.03
2022-08-14T20:12:35.452Z,3.20
2022-08-14T20:15:08.888Z,2.95
2022-08-14T20:17:40.428Z,3.75
2022-08-14T20:20:24.377Z,2.80
2022-08-14T20:23:02.098Z,3.58
2022-08-14T20:25:55.696Z,3.50
2022-08-14T20:28:35.346Z,3.47
2022-08-14T20:31:20.007Z,3.55
2022-08-14T20:34:25.002Z,3.75
2022-08-14T20:37:22.074Z,3.75
2022-08-14T20:39:54.212Z,3.85
2022-08-14T20:42:43.471Z,3.95
2022-08-14T20:45:18.167Z,3.10
2022-08-14T20:50:28.939Z,4.00
2022-08-14T20:53:05.925Z,3.20
2022-08-14T20:55:41.667Z,2.78
2022-08-14T20:58:38.803Z,3.50
2022-08-14T21:01:11.991Z,3.42
2022-08-14T21:03:57.360Z,2.78
2022-08-14T21:07:22.655Z,2.85
2022-08-14T21:10:05.353Z,3.08
2022-08-14T21:12:34.691Z,3.58
2022-08-14T21:15:10.109Z,2.90
2022-08-14T21:17:43.022Z,3.20
2022-08-14T21:20:25.306Z,2.95
2022-08-14T21:22:56.500Z,2.95
2022-08-14T21:25:24.510Z,2.88
2022-08-14T21:27:56.784Z,3.15
2022-08-14T21:30:51.785Z,3.15
2022-08-14T21:33:16.126Z,3.05
2022-08-14T21:35:45.635Z,2.97
2022-08-14T21:38:17.941Z,2.58
2022-08-14T21:40:50.575Z,3.70
2022-08-14T21:43:24.046Z,2.45
2022-08-14T21:45:57.544Z,2.45
2022-08-14T21:48:32.318Z,2.38
2022-08-14T21:51:54.392Z,2.50
2022-08-14T21:54:49.143Z,2.03
2022-08-14T21:58:43.595Z,2.72
2022-08-14T22:00:30.435Z,2.53
2022-08-14T22:03:05.229Z,3.00
2022-08-14T22:05:32.991Z,2.60
2022-08-14T22:08:05.641Z,2.60
2022-08-14T22:10:36.125Z,2.10
2022-08-14T22:13:05.328Z,2.40
2022-08-14T22:15:33.456Z,2.03
2022-08-14T22:18:04.370Z,2.13
2022-08-14T22:20:33.830Z,2.30
2022-08-14T22:23:05.516Z,2.60
2022-08-14T22:25:41.096Z,2.63
2022-08-14T22:28:13.428Z,2.47
2022-08-14T22:30:43.316Z,3.78
2022-08-14T22:33:13.909Z,2.30
2022-08-14T22:35:45.184Z,2.05
2022-08-14T22:38:36.779Z,2.00
2022-08-14T22:43:53.804Z,2.77
2022-08-14T22:46:22.209Z,2.70
2022-08-14T22:48:51.302Z,2.30
2022-08-14T22:51:23.654Z,2.15
2022-08-14T22:53:54.159Z,2.30
2022-08-14T22:56:30.210Z,2.10
2022-08-14T22:59:04.905Z,2.80
2022-08-14T23:01:56.637Z,2.30
2022-08-14T23:04:35.985Z,2.50
2022-08-14T23:07:22.823Z,3.08
2022-08-14T23:09:57.643Z,2.45
2022-08-14T23:12:34.857Z,1.98
2022-08-14T23:15:03.966Z,2.60
2022-08-14T23:20:19.270Z,2.13
2022-08-14T23:22:51.565Z,2.03
2022-08-14T23:25:49.994Z,2.17
2022-08-14T23:28:33.431Z,2.53
2022-08-14T23:31:08.424Z,2.15
2022-08-14T23:33:46.172Z,2.35
2022-08-14T23:36:32.341Z,2.47
2022-08-14T23:39:12.363Z,3.38
2022-08-14T23:41:53.156Z,2.60
2022-08-14T23:44:24.044Z,2.58
2022-08-14T23:47:00.454Z,2.65
2022-08-14T23:50:01.242Z,2.60
2022-08-14T23:52:50.841Z,2.20
2022-08-14T23:55:11.367Z,2.22
2022-08-14T23:57:43.945Z,2.47
